Allouez, MI

9:02 PM EDT on August 20, 2014 (GMT -0400)
Iroquois St. in Laurium | Change Station
CLOSE
Current Station
Personal Weather Station
Location: Calumet Township, MI
Elevation: 1230 ft
Nearby Weather Stations

Elev 1230 ft 47.24 °N, 88.44 °W | Updated 1 minute ago

Overcast
Overcast
60.3 °F
Feels Like 60.3 °F
N
0.0
Wind Variable Wind from South
Gusts 0.0 mph

Today
High -- | Low -- °F
--% Chance of Precip.
Yesterday
High -- | Low -- °F
Precip. -- in
6:56 AM 8:56 PM
Waning Crescent, 18% visible
Pressure 29.95 in
Visibility 7.0 miles
Clouds Overcast 800 ft
Dew Point 60 °F
Humidity 99%
Rainfall 0.00 in
Snow Depth Not available.
UV 0 out of 12
Pollen 8.10 out of 12
Air Quality Not available.
Flu Activity Not available.
METAR KCMX 210053Z AUTO 33003KT 7SM OVC008 16/14 A2994 RMK AO2 SLP140 T01560144

More Conditions Fewer Conditions

Pressure 29.95 in
Visibility 7.0 miles
Clouds Overcast 800 ft
Dew Point 60 °F
Humidity 99%
Rainfall 0.00 in
Snow Depth Not available.
UV 0 out of 12
Pollen 8.10 out of 12
Air Quality Not available.
Flu Activity Not available.
METAR KCMX 210053Z AUTO 33003KT 7SM OVC008 16/14 A2994 RMK AO2 SLP140 T01560144

More Conditions Fewer Conditions

10-Day Weather Forecast

Almanac

Astronomy

Aug. 20, 2014 Rise Set
Actual Time 6:56 AM EDT 8:56 PM EDT
Civil Twilight 6:23 AM EDT 9:29 PM EDT
Nautical Twilight 5:43 AM EDT 10:09 PM EDT
Astronomical Twilight 4:57 AM EDT 10:54 PM EDT
Moon 2:29 AM EDT (8/20) 5:48 PM EDT (8/20)
Length of Visible Light 15h 05m
Length of Day
13h 59m
Tomorrow will be 3m 9s shorter.
Waning Crescent, 18% of the Moon is Illuminated
Today
Waning Crescent
Aug 25
New
Sep 2
First Quarter
Sep 8
Full
Sep 15
Last Quarter

Today's Extremes

State Highs State Lows

Community

WunderPhotos

Upload Photos

1,745,823 photos uploaded!

WunderBlogs® & News

Nearby

Snow Depth

Station Depth Elevation
No new snow has been reported.

Earthquake Activity

City Distance Mag. Time & Date
No recent earthquake activity has been reported nearby.
Minimum magnitude displayed is 2.5.

Coastal Water Temperatures

Place Temperature
No Stations Reporting

Nearby Weather Stations